Time;durP1;ratioP1;P1;durP2;ratioP2;P2;SDS_P1;SDS_P2;PMS_P1;PMS_P2;Temp;Humidity;BMP_temperature;BMP_pressure;BME280_temperature;BME280_humidity;BME280_pressure;Samples;Min_cycle;Max_cycle;Signal;HPM_P1;HPM_P2
2021/09/20 00:00:14;;;;;;;;;;;25.00;43.00;;;;;;485041;245;969;-68
2021/09/20 00:02:15;;;;;;;;;;;25.30;42.50;;;;;;485034;245;1209;-68
2021/09/20 00:04:17;;;;;;;;;;;25.00;43.00;;;;;;485087;245;1134;-68
2021/09/20 00:06:18;;;;;;;;;;;25.30;42.40;;;;;;484979;245;2183;-68
2021/09/20 00:08:19;;;;;;;;;;;24.80;42.80;;;;;;484965;245;1138;-69
2021/09/20 00:10:21;;;;;;;;;;;24.80;42.90;;;;;;485001;245;1272;-68
2021/09/20 00:12:22;;;;;;;;;;;25.00;43.00;;;;;;485036;245;1322;-68
2021/09/20 00:14:23;;;;;;;;;;;24.40;43.70;;;;;;485041;245;1245;-68
2021/09/20 00:16:25;;;;;;;;;;;24.80;43.10;;;;;;485049;245;949;-68
2021/09/20 00:18:26;;;;;;;;;;;25.10;43.00;;;;;;485069;245;1165;-68
2021/09/20 00:20:27;;;;;;;;;;;24.80;43.30;;;;;;485026;245;994;-69
2021/09/20 00:22:29;;;;;;;;;;;24.70;43.10;;;;;;484998;245;1138;-69
2021/09/20 00:24:30;;;;;;;;;;;24.70;43.70;;;;;;485053;245;1102;-68
2021/09/20 00:26:31;;;;;;;;;;;24.90;42.90;;;;;;484911;245;2136;-69
2021/09/20 00:28:32;;;;;;;;;;;24.90;43.20;;;;;;484992;245;967;-69
2021/09/20 00:30:36;;;;;;;;;;;24.60;43.30;;;;;;484986;245;1010;-68
2021/09/20 00:32:35;;;;;;;;;;;24.90;43.10;;;;;;484977;245;1577;-68
2021/09/20 00:34:36;;;;;;;;;;;24.60;43.30;;;;;;485048;245;945;-69
2021/09/20 00:36:38;;;;;;;;;;;25.10;42.90;;;;;;484970;245;1193;-68
2021/09/20 00:38:39;;;;;;;;;;;24.70;43.40;;;;;;485027;245;1035;-68
2021/09/20 00:40:40;;;;;;;;;;;24.90;42.90;;;;;;485092;245;1184;-68
2021/09/20 00:42:42;;;;;;;;;;;24.30;44.10;;;;;;484998;245;1197;-69
2021/09/20 00:44:43;;;;;;;;;;;24.40;43.60;;;;;;485025;245;1365;-69
2021/09/20 00:46:44;;;;;;;;;;;25.00;43.10;;;;;;484884;246;2184;-68
2021/09/20 00:48:46;;;;;;;;;;;24.40;43.90;;;;;;485018;245;1111;-68
2021/09/20 00:50:47;;;;;;;;;;;24.50;43.60;;;;;;485018;245;1090;-69
2021/09/20 00:52:48;;;;;;;;;;;24.80;43.20;;;;;;484961;245;1169;-68
2021/09/20 00:54:50;;;;;;;;;;;24.90;43.20;;;;;;484954;245;1163;-68
2021/09/20 00:56:51;;;;;;;;;;;25.10;42.50;;;;;;484845;245;1217;-68
2021/09/20 00:58:53;;;;;;;;;;;25.20;42.30;;;;;;484991;245;1207;-69
2021/09/20 01:00:54;;;;;;;;;;;24.60;42.70;;;;;;484972;245;1154;-68
2021/09/20 01:02:56;;;;;;;;;;;24.90;42.60;;;;;;485096;245;1191;-69
2021/09/20 01:04:57;;;;;;;;;;;24.90;42.90;;;;;;485015;245;1134;-69
2021/09/20 01:06:58;;;;;;;;;;;24.80;42.80;;;;;;484914;245;2179;-69
2021/09/20 01:09:00;;;;;;;;;;;24.90;42.80;;;;;;484970;246;1157;-69
2021/09/20 01:11:01;;;;;;;;;;;24.90;42.60;;;;;;484988;246;1190;-68
2021/09/20 01:13:02;;;;;;;;;;;24.90;42.70;;;;;;485074;245;1095;-68
2021/09/20 01:15:04;;;;;;;;;;;24.90;42.60;;;;;;485099;245;1065;-69
2021/09/20 01:17:05;;;;;;;;;;;25.10;42.40;;;;;;485011;245;1182;-69
2021/09/20 01:19:06;;;;;;;;;;;25.00;42.60;;;;;;485044;245;1089;-69
2021/09/20 01:21:07;;;;;;;;;;;24.90;42.70;;;;;;485019;245;1179;-69
2021/09/20 01:23:09;;;;;;;;;;;24.90;42.70;;;;;;485071;245;950;-68
2021/09/20 01:25:10;;;;;;;;;;;24.90;42.60;;;;;;485001;245;1043;-69
2021/09/20 01:27:11;;;;;;;;;;;25.00;42.60;;;;;;485028;245;2176;-69
2021/09/20 01:29:13;;;;;;;;;;;24.80;42.70;;;;;;484963;246;1087;-68
2021/09/20 01:31:14;;;;;;;;;;;24.70;42.70;;;;;;484953;245;998;-68
2021/09/20 01:33:15;;;;;;;;;;;24.80;43.00;;;;;;484944;245;1147;-68
2021/09/20 01:35:17;;;;;;;;;;;24.60;43.20;;;;;;485037;245;1035;-69
2021/09/20 01:37:18;;;;;;;;;;;24.30;43.30;;;;;;484924;245;1168;-69
2021/09/20 01:39:19;;;;;;;;;;;24.80;43.00;;;;;;485045;245;929;-68
2021/09/20 01:41:21;;;;;;;;;;;24.60;43.40;;;;;;485048;245;1193;-68
2021/09/20 01:43:22;;;;;;;;;;;24.40;43.30;;;;;;484992;246;1124;-68
2021/09/20 01:45:25;;;;;;;;;;;24.60;43.10;;;;;;485032;245;942;-68
2021/09/20 01:47:25;;;;;;;;;;;24.70;43.10;;;;;;485058;245;2192;-68
2021/09/20 01:49:26;;;;;;;;;;;24.90;42.70;;;;;;485052;245;1025;-69
2021/09/20 01:51:28;;;;;;;;;;;24.80;42.50;;;;;;485040;245;1147;-69
2021/09/20 01:53:29;;;;;;;;;;;25.10;42.10;;;;;;485054;245;957;-69
2021/09/20 01:55:30;;;;;;;;;;;25.20;42.10;;;;;;485101;245;1197;-69
2021/09/20 01:57:32;;;;;;;;;;;24.80;42.20;;;;;;485045;245;1198;-69
2021/09/20 01:59:33;;;;;;;;;;;24.90;42.50;;;;;;485084;245;977;-69
2021/09/20 02:01:34;;;;;;;;;;;24.80;42.90;;;;;;485064;245;1206;-69
2021/09/20 02:03:36;;;;;;;;;;;25.00;42.20;;;;;;485097;245;1031;-69
2021/09/20 02:05:37;;;;;;;;;;;25.00;42.40;;;;;;484961;245;1236;-69
2021/09/20 02:07:41;;;;;;;;;;;25.10;42.10;;;;;;485030;245;2128;-68
2021/09/20 02:09:40;;;;;;;;;;;24.50;42.70;;;;;;484947;245;1378;-68
2021/09/20 02:11:41;;;;;;;;;;;24.90;42.70;;;;;;485027;245;1201;-69
2021/09/20 02:13:42;;;;;;;;;;;24.60;43.10;;;;;;485021;245;1058;-69
2021/09/20 02:15:44;;;;;;;;;;;24.60;43.00;;;;;;484996;245;1235;-69
2021/09/20 02:17:45;;;;;;;;;;;24.80;42.70;;;;;;484985;245;1113;-69
2021/09/20 02:19:46;;;;;;;;;;;24.80;42.80;;;;;;484973;245;996;-69
2021/09/20 02:21:48;;;;;;;;;;;24.40;43.10;;;;;;484900;246;1232;-68
2021/09/20 02:23:49;;;;;;;;;;;24.50;42.80;;;;;;485026;245;1038;-69
2021/09/20 02:25:50;;;;;;;;;;;24.50;43.20;;;;;;485058;245;1187;-68
2021/09/20 02:27:51;;;;;;;;;;;24.60;43.20;;;;;;484958;245;2176;-68
2021/09/20 02:29:53;;;;;;;;;;;24.70;42.90;;;;;;485090;245;1005;-69
2021/09/20 02:31:54;;;;;;;;;;;24.80;42.60;;;;;;484940;245;1229;-68
2021/09/20 02:33:56;;;;;;;;;;;24.90;42.30;;;;;;485029;245;978;-68
2021/09/20 02:35:57;;;;;;;;;;;24.80;42.50;;;;;;485086;245;946;-68
2021/09/20 02:37:58;;;;;;;;;;;24.60;42.50;;;;;;485059;245;1102;-69
2021/09/20 02:39:59;;;;;;;;;;;25.00;42.10;;;;;;485010;246;978;-69
2021/09/20 02:42:01;;;;;;;;;;;24.80;42.60;;;;;;484943;245;1240;-68
2021/09/20 02:44:02;;;;;;;;;;;24.70;42.80;;;;;;485045;245;1113;-69
2021/09/20 02:46:03;;;;;;;;;;;24.50;43.00;;;;;;485038;245;1231;-69
2021/09/20 02:48:05;;;;;;;;;;;24.50;42.70;;;;;;485021;245;2120;-69
2021/09/20 02:50:06;;;;;;;;;;;24.90;42.60;;;;;;485064;245;957;-69
2021/09/20 02:52:07;;;;;;;;;;;24.80;42.60;;;;;;485032;245;1235;-69
2021/09/20 02:54:09;;;;;;;;;;;25.10;42.00;;;;;;485007;245;1007;-69
2021/09/20 02:56:10;;;;;;;;;;;25.10;41.90;;;;;;484897;246;1146;-69
2021/09/20 02:58:11;;;;;;;;;;;25.10;41.90;;;;;;484970;245;989;-69
2021/09/20 03:00:13;;;;;;;;;;;24.70;42.60;;;;;;485033;246;950;-69
2021/09/20 03:02:15;;;;;;;;;;;24.70;42.70;;;;;;485028;245;1072;-69
2021/09/20 03:04:16;;;;;;;;;;;24.50;42.60;;;;;;485054;245;956;-69
2021/09/20 03:06:18;;;;;;;;;;;24.80;42.50;;;;;;484995;245;1214;-68
2021/09/20 03:08:19;;;;;;;;;;;24.40;42.90;;;;;;484977;245;2120;-68
2021/09/20 03:10:20;;;;;;;;;;;24.30;43.10;;;;;;485031;245;1113;-69
2021/09/20 03:12:21;;;;;;;;;;;24.50;42.60;;;;;;484997;245;1152;-69
2021/09/20 03:14:25;;;;;;;;;;;24.50;42.50;;;;;;485039;245;966;-69
2021/09/20 03:16:26;;;;;;;;;;;24.60;42.70;;;;;;484953;245;1202;-69
2021/09/20 03:18:27;;;;;;;;;;;24.50;42.70;;;;;;485031;245;1040;-69
2021/09/20 03:20:28;;;;;;;;;;;24.40;42.70;;;;;;485010;245;1022;-69
2021/09/20 03:22:30;;;;;;;;;;;24.60;42.30;;;;;;484960;245;1195;-68
2021/09/20 03:24:31;;;;;;;;;;;24.70;42.50;;;;;;485036;245;934;-68
2021/09/20 03:26:32;;;;;;;;;;;24.80;42.20;;;;;;484952;245;1266;-69
2021/09/20 03:28:34;;;;;;;;;;;24.50;42.20;;;;;;484943;245;2116;-69
2021/09/20 03:30:35;;;;;;;;;;;24.70;42.20;;;;;;485044;245;1199;-69
2021/09/20 03:32:36;;;;;;;;;;;24.90;42.00;;;;;;484963;245;1048;-69
2021/09/20 03:34:38;;;;;;;;;;;24.80;42.10;;;;;;485018;245;1030;-68
2021/09/20 03:36:39;;;;;;;;;;;24.60;42.40;;;;;;484993;245;1201;-68
2021/09/20 03:38:40;;;;;;;;;;;24.80;41.80;;;;;;485039;245;1170;-69
2021/09/20 03:40:42;;;;;;;;;;;24.90;42.00;;;;;;485028;245;1123;-68
2021/09/20 03:42:43;;;;;;;;;;;24.60;42.10;;;;;;485026;245;1171;-69
2021/09/20 03:44:44;;;;;;;;;;;24.60;42.10;;;;;;485022;245;973;-68
2021/09/20 03:46:46;;;;;;;;;;;24.90;41.70;;;;;;484948;245;1195;-68
2021/09/20 03:48:47;;;;;;;;;;;25.10;41.50;;;;;;485017;245;2187;-69
2021/09/20 03:50:48;;;;;;;;;;;25.10;41.30;;;;;;485004;245;1153;-69
2021/09/20 03:52:50;;;;;;;;;;;24.70;41.70;;;;;;485066;245;1115;-69
2021/09/20 03:54:51;;;;;;;;;;;24.80;42.00;;;;;;485051;245;1002;-68
2021/09/20 03:56:52;;;;;;;;;;;24.80;41.70;;;;;;484981;245;1202;-68
2021/09/20 03:58:54;;;;;;;;;;;24.90;41.80;;;;;;484919;245;977;-68
2021/09/20 04:00:55;;;;;;;;;;;24.70;41.90;;;;;;484986;246;1074;-68
2021/09/20 04:02:57;;;;;;;;;;;25.20;41.20;;;;;;485012;245;974;-69
2021/09/20 04:04:58;;;;;;;;;;;25.00;41.20;;;;;;485055;245;995;-68
2021/09/20 04:07:03;;;;;;;;;;;25.10;41.20;;;;;;484923;245;1100;-68
2021/09/20 04:09:02;;;;;;;;;;;25.10;41.10;;;;;;484828;245;2195;-68
2021/09/20 04:11:02;;;;;;;;;;;24.90;41.60;;;;;;484927;245;1442;-68
2021/09/20 04:13:03;;;;;;;;;;;24.80;41.60;;;;;;485020;245;1155;-69
2021/09/20 04:15:05;;;;;;;;;;;24.60;41.70;;;;;;484911;245;1173;-68
2021/09/20 04:17:06;;;;;;;;;;;24.70;41.70;;;;;;484828;245;1013;-68
2021/09/20 04:19:08;;;;;;;;;;;24.60;42.00;;;;;;484963;245;1017;-68
2021/09/20 04:21:09;;;;;;;;;;;24.70;41.80;;;;;;484978;245;1121;-68
2021/09/20 04:23:10;;;;;;;;;;;24.80;41.60;;;;;;484932;245;1323;-68
2021/09/20 04:25:12;;;;;;;;;;;24.60;41.90;;;;;;484927;245;1084;-68
2021/09/20 04:27:13;;;;;;;;;;;24.90;41.50;;;;;;484896;245;1151;-68
2021/09/20 04:29:14;;;;;;;;;;;24.80;41.70;;;;;;484917;245;2188;-68
2021/09/20 04:31:16;;;;;;;;;;;24.60;42.00;;;;;;484881;245;1230;-68
2021/09/20 04:33:17;;;;;;;;;;;24.60;41.90;;;;;;484922;245;1117;-68
2021/09/20 04:35:18;;;;;;;;;;;24.70;41.60;;;;;;484821;245;1075;-68
2021/09/20 04:37:20;;;;;;;;;;;24.80;41.80;;;;;;484773;245;1086;-68
2021/09/20 04:39:21;;;;;;;;;;;24.70;41.70;;;;;;484874;245;1092;-68
2021/09/20 04:41:22;;;;;;;;;;;24.70;41.80;;;;;;484843;245;1211;-68
2021/09/20 04:43:24;;;;;;;;;;;24.80;41.60;;;;;;484895;245;1204;-68
2021/09/20 04:45:25;;;;;;;;;;;24.90;41.40;;;;;;484731;245;1061;-68
2021/09/20 04:47:26;;;;;;;;;;;25.10;41.20;;;;;;484680;245;1107;-68
2021/09/20 04:49:27;;;;;;;;;;;25.20;40.90;;;;;;484794;246;2171;-68
2021/09/20 04:51:29;;;;;;;;;;;24.90;41.10;;;;;;484726;242;1360;-68
2021/09/20 04:53:30;;;;;;;;;;;24.60;41.70;;;;;;484731;245;1068;-68
2021/09/20 04:55:31;;;;;;;;;;;24.80;41.50;;;;;;484739;245;1061;-68
2021/09/20 04:57:33;;;;;;;;;;;24.80;41.50;;;;;;484771;245;1131;-68
2021/09/20 04:59:34;;;;;;;;;;;24.90;41.20;;;;;;484827;245;1142;-68
2021/09/20 05:01:35;;;;;;;;;;;25.00;41.30;;;;;;484677;245;1199;-68
2021/09/20 05:03:37;;;;;;;;;;;24.90;41.40;;;;;;484847;245;1056;-68
2021/09/20 05:05:38;;;;;;;;;;;24.40;42.00;;;;;;484787;245;1239;-68
2021/09/20 05:07:39;;;;;;;;;;;24.60;41.90;;;;;;484658;245;1178;-68
2021/09/20 05:09:41;;;;;;;;;;;24.70;41.70;;;;;;484763;245;2171;-68
2021/09/20 05:11:42;;;;;;;;;;;24.60;41.90;;;;;;484603;245;1216;-68
2021/09/20 05:13:43;;;;;;;;;;;24.70;41.70;;;;;;484671;246;1140;-68
2021/09/20 05:15:45;;;;;;;;;;;24.10;42.20;;;;;;484542;245;1160;-68
2021/09/20 05:17:46;;;;;;;;;;;24.30;42.20;;;;;;484640;245;1132;-68
2021/09/20 05:19:47;;;;;;;;;;;24.60;42.00;;;;;;484641;245;1087;-68
2021/09/20 05:21:49;;;;;;;;;;;24.70;41.80;;;;;;484558;245;1218;-68
2021/09/20 05:23:50;;;;;;;;;;;24.90;41.40;;;;;;484664;245;964;-68
2021/09/20 05:25:52;;;;;;;;;;;24.90;41.20;;;;;;484727;245;1049;-68
2021/09/20 05:27:53;;;;;;;;;;;25.00;41.00;;;;;;484722;245;1166;-68
2021/09/20 05:29:54;;;;;;;;;;;24.90;41.20;;;;;;484617;245;2248;-68
2021/09/20 05:31:55;;;;;;;;;;;24.80;41.50;;;;;;484635;245;1213;-68
2021/09/20 05:33:57;;;;;;;;;;;24.60;41.60;;;;;;484583;246;1097;-68
2021/09/20 05:35:58;;;;;;;;;;;24.90;41.20;;;;;;484592;245;1046;-68
2021/09/20 05:37:59;;;;;;;;;;;24.90;41.20;;;;;;484562;245;1160;-68
2021/09/20 05:40:01;;;;;;;;;;;25.10;41.00;;;;;;484612;246;1080;-68
2021/09/20 05:42:02;;;;;;;;;;;25.10;41.00;;;;;;484544;245;1348;-68
2021/09/20 05:44:04;;;;;;;;;;;24.80;41.40;;;;;;484646;246;1104;-68
2021/09/20 05:46:06;;;;;;;;;;;24.80;41.50;;;;;;484583;245;1201;-68
2021/09/20 05:48:07;;;;;;;;;;;24.70;41.70;;;;;;484400;245;1112;-68
2021/09/20 05:50:08;;;;;;;;;;;24.80;41.50;;;;;;484444;246;2171;-68
2021/09/20 05:52:09;;;;;;;;;;;24.50;42.00;;;;;;484442;245;1210;-68
2021/09/20 05:54:11;;;;;;;;;;;24.50;41.90;;;;;;484511;245;1006;-68
2021/09/20 05:56:12;;;;;;;;;;;24.80;41.60;;;;;;484638;245;1211;-68
2021/09/20 05:58:14;;;;;;;;;;;24.70;41.70;;;;;;484632;245;1101;-69
2021/09/20 06:00:15;;;;;;;;;;;24.80;41.60;;;;;;484388;245;1191;-69
2021/09/20 06:02:17;;;;;;;;;;;24.70;41.50;;;;;;484372;245;1216;-69
2021/09/20 06:04:18;;;;;;;;;;;25.30;40.90;;;;;;484568;245;1375;-69
2021/09/20 06:06:19;;;;;;;;;;;24.70;41.50;;;;;;484500;245;1433;-69
2021/09/20 06:08:20;;;;;;;;;;;25.00;41.10;;;;;;484580;245;2187;-68
2021/09/20 06:10:21;;;;;;;;;;;24.90;41.10;;;;;;484348;245;1047;-68
2021/09/20 06:12:23;;;;;;;;;;;24.80;41.70;;;;;;484296;245;1112;-68
2021/09/20 06:14:24;;;;;;;;;;;24.40;42.10;;;;;;484308;245;1169;-68
2021/09/20 06:16:25;;;;;;;;;;;24.40;42.00;;;;;;484167;245;1218;-68
2021/09/20 06:18:27;;;;;;;;;;;24.60;41.60;;;;;;484232;245;1078;-68
2021/09/20 06:20:28;;;;;;;;;;;24.80;41.70;;;;;;484371;245;1111;-68
2021/09/20 06:22:29;;;;;;;;;;;24.70;41.70;;;;;;484304;246;1117;-68
2021/09/20 06:24:31;;;;;;;;;;;24.50;42.10;;;;;;484187;246;1065;-68
2021/09/20 06:26:32;;;;;;;;;;;24.50;41.80;;;;;;484257;245;1108;-68
2021/09/20 06:28:33;;;;;;;;;;;24.90;41.40;;;;;;484234;246;2179;-68
2021/09/20 06:30:35;;;;;;;;;;;24.60;41.90;;;;;;484074;245;1590;-68
2021/09/20 06:32:36;;;;;;;;;;;24.50;41.70;;;;;;484133;245;1077;-68
2021/09/20 06:34:37;;;;;;;;;;;24.90;41.40;;;;;;483977;245;1094;-69
2021/09/20 06:36:39;;;;;;;;;;;25.00;41.00;;;;;;483992;245;1204;-68
2021/09/20 06:38:40;;;;;;;;;;;25.00;41.10;;;;;;484206;245;1438;-68
2021/09/20 06:40:41;;;;;;;;;;;25.20;40.80;;;;;;484931;245;902;-68
2021/09/20 06:42:43;;;;;;;;;;;24.90;41.10;;;;;;484622;245;1033;-68
2021/09/20 06:44:44;;;;;;;;;;;24.90;41.20;;;;;;484364;245;1102;-68
2021/09/20 06:46:45;;;;;;;;;;;24.90;41.10;;;;;;484060;245;1142;-68
2021/09/20 06:48:48;;;;;;;;;;;25.00;40.90;;;;;;483961;245;2198;-68
2021/09/20 06:50:49;;;;;;;;;;;25.10;41.00;;;;;;484614;245;1474;-68
2021/09/20 06:52:51;;;;;;;;;;;24.90;41.40;;;;;;484522;245;791;-68
2021/09/20 06:54:52;;;;;;;;;;;24.40;41.50;;;;;;484739;245;785;-68
2021/09/20 06:56:53;;;;;;;;;;;24.60;41.50;;;;;;484297;245;1237;-68
2021/09/20 06:58:55;;;;;;;;;;;24.80;41.40;;;;;;484437;245;845;-68
2021/09/20 07:00:56;;;;;;;;;;;24.90;41.30;;;;;;484464;245;1338;-68
2021/09/20 07:02:57;;;;;;;;;;;24.50;41.80;;;;;;484888;245;1120;-68
2021/09/20 07:04:59;;;;;;;;;;;24.60;41.40;;;;;;484692;245;1073;-69
2021/09/20 07:07:00;;;;;;;;;;;24.80;41.30;;;;;;483874;245;1207;-68
2021/09/20 07:09:01;;;;;;;;;;;24.80;41.50;;;;;;483898;245;2112;-68
2021/09/20 07:11:03;;;;;;;;;;;24.40;41.80;;;;;;483634;245;1229;-68
2021/09/20 07:13:08;;;;;;;;;;;24.60;41.60;;;;;;483706;245;1054;-68
2021/09/20 07:15:06;;;;;;;;;;;24.70;41.10;;;;;;483525;245;1452;-68
2021/09/20 07:17:07;;;;;;;;;;;24.80;41.40;;;;;;483759;245;1188;-68
2021/09/20 07:19:08;;;;;;;;;;;24.80;41.50;;;;;;483910;245;1061;-69
2021/09/20 07:21:09;;;;;;;;;;;24.70;41.50;;;;;;483694;246;1218;-69
2021/09/20 07:23:11;;;;;;;;;;;25.10;41.00;;;;;;483811;246;1050;-69
2021/09/20 07:25:12;;;;;;;;;;;25.10;40.70;;;;;;483749;246;1089;-68
2021/09/20 07:27:13;;;;;;;;;;;25.30;40.60;;;;;;483931;245;1122;-68
2021/09/20 07:29:15;;;;;;;;;;;25.30;40.50;;;;;;483662;245;2180;-68
2021/09/20 07:31:16;;;;;;;;;;;25.40;40.40;;;;;;483477;245;1302;-69
2021/09/20 07:33:18;;;;;;;;;;;24.90;41.00;;;;;;483647;245;1078;-69
2021/09/20 07:35:19;;;;;;;;;;;25.00;40.90;;;;;;483836;245;1117;-68
2021/09/20 07:37:21;;;;;;;;;;;25.20;40.70;;;;;;483647;245;1254;-69
2021/09/20 07:39:22;;;;;;;;;;;25.00;41.00;;;;;;483527;245;1107;-69
2021/09/20 07:41:23;;;;;;;;;;;24.80;41.40;;;;;;483421;245;1367;-69
2021/09/20 07:43:24;;;;;;;;;;;24.80;41.30;;;;;;483391;245;1068;-68
2021/09/20 07:45:26;;;;;;;;;;;25.00;41.10;;;;;;483622;245;1190;-68
2021/09/20 07:47:27;;;;;;;;;;;24.90;41.20;;;;;;484079;245;1180;-68
2021/09/20 07:49:28;;;;;;;;;;;25.10;40.80;;;;;;484723;245;2187;-68
2021/09/20 07:51:30;;;;;;;;;;;25.10;41.00;;;;;;484525;245;1176;-69
2021/09/20 07:53:31;;;;;;;;;;;24.70;41.50;;;;;;484192;245;898;-68
2021/09/20 07:55:35;;;;;;;;;;;24.90;41.20;;;;;;483976;245;957;-68
2021/09/20 07:57:36;;;;;;;;;;;24.70;41.20;;;;;;483999;245;1146;-68
2021/09/20 07:59:37;;;;;;;;;;;24.90;41.40;;;;;;483683;246;1046;-68
2021/09/20 08:01:39;;;;;;;;;;;24.70;41.60;;;;;;483812;246;1211;-68
2021/09/20 08:03:40;;;;;;;;;;;24.60;41.50;;;;;;483866;245;985;-69
2021/09/20 08:05:41;;;;;;;;;;;25.10;41.00;;;;;;483457;245;1205;-69
2021/09/20 08:07:43;;;;;;;;;;;24.80;41.10;;;;;;483497;245;1060;-69
2021/09/20 08:09:44;;;;;;;;;;;25.00;40.90;;;;;;483790;245;2124;-69
2021/09/20 08:11:46;;;;;;;;;;;24.90;40.80;;;;;;483756;245;1238;-69
2021/09/20 08:13:47;;;;;;;;;;;24.80;41.40;;;;;;483683;245;1239;-69
2021/09/20 08:15:48;;;;;;;;;;;24.80;41.30;;;;;;483410;245;1131;-69
2021/09/20 08:17:49;;;;;;;;;;;24.50;41.30;;;;;;483594;245;1063;-68
2021/09/20 08:19:51;;;;;;;;;;;24.80;41.20;;;;;;483544;246;1071;-69
2021/09/20 08:21:52;;;;;;;;;;;24.70;41.30;;;;;;483390;246;1225;-68
2021/09/20 08:23:53;;;;;;;;;;;24.80;41.20;;;;;;483648;246;1115;-69
2021/09/20 08:25:55;;;;;;;;;;;25.10;40.70;;;;;;483694;245;1523;-69
2021/09/20 08:27:56;;;;;;;;;;;25.10;40.60;;;;;;483705;245;1201;-69
2021/09/20 08:29:57;;;;;;;;;;;24.50;41.40;;;;;;483812;245;2124;-68
2021/09/20 08:31:59;;;;;;;;;;;24.50;41.40;;;;;;483769;245;1156;-68
2021/09/20 08:34:00;;;;;;;;;;;24.50;41.60;;;;;;483821;245;1277;-69
2021/09/20 08:36:01;;;;;;;;;;;24.60;41.60;;;;;;483724;245;1107;-69
2021/09/20 08:38:02;;;;;;;;;;;24.30;42.00;;;;;;483736;245;1275;-69
2021/09/20 08:40:05;;;;;;;;;;;24.20;41.80;;;;;;483806;246;1094;-69
2021/09/20 08:42:05;;;;;;;;;;;24.60;41.40;;;;;;483541;245;1900;-68
2021/09/20 08:44:09;;;;;;;;;;;24.60;41.30;;;;;;483593;245;1285;-69
2021/09/20 08:46:08;;;;;;;;;;;24.80;41.30;;;;;;483465;245;1292;-68
2021/09/20 08:48:09;;;;;;;;;;;24.30;42.00;;;;;;483946;246;1006;-68
2021/09/20 08:50:11;;;;;;;;;;;24.50;41.60;;;;;;483410;246;2180;-68
2021/09/20 08:52:12;;;;;;;;;;;24.40;41.30;;;;;;482992;245;1453;-68
2021/09/20 08:54:14;;;;;;;;;;;24.80;41.00;;;;;;484489;245;848;-68
2021/09/20 08:56:15;;;;;;;;;;;25.00;40.70;;;;;;484391;245;1404;-68
2021/09/20 08:58:16;;;;;;;;;;;24.80;40.60;;;;;;484155;245;1555;-68
2021/09/20 09:00:17;;;;;;;;;;;24.50;41.60;;;;;;484817;245;1212;-69
2021/09/20 09:02:19;;;;;;;;;;;24.00;42.20;;;;;;484260;245;1172;-69
2021/09/20 09:04:20;;;;;;;;;;;24.10;42.00;;;;;;484292;245;888;-69
2021/09/20 09:06:21;;;;;;;;;;;24.50;41.60;;;;;;484343;245;1094;-69
2021/09/20 09:08:23;;;;;;;;;;;24.80;41.20;;;;;;484493;245;1061;-69
2021/09/20 09:10:24;;;;;;;;;;;24.90;41.00;;;;;;484583;245;2183;-69
2021/09/20 09:12:25;;;;;;;;;;;24.60;41.30;;;;;;484152;245;1306;-68
2021/09/20 09:14:27;;;;;;;;;;;24.70;41.10;;;;;;484152;245;774;-68
2021/09/20 09:16:28;;;;;;;;;;;24.90;40.90;;;;;;483952;245;1080;-68
2021/09/20 09:18:29;;;;;;;;;;;24.50;41.40;;;;;;483632;245;969;-68
2021/09/20 09:20:30;;;;;;;;;;;24.70;41.10;;;;;;484224;245;813;-68
2021/09/20 09:22:32;;;;;;;;;;;24.40;41.70;;;;;;484289;245;1132;-69
2021/09/20 09:24:33;;;;;;;;;;;24.40;41.80;;;;;;484007;245;1080;-68
2021/09/20 09:26:34;;;;;;;;;;;24.40;41.30;;;;;;484074;245;1075;-68
2021/09/20 09:28:36;;;;;;;;;;;24.40;41.90;;;;;;483986;245;1009;-68
2021/09/20 09:30:37;;;;;;;;;;;24.40;41.80;;;;;;484125;245;2194;-68
2021/09/20 09:32:39;;;;;;;;;;;23.90;42.10;;;;;;483675;245;1197;-68
2021/09/20 09:34:42;;;;;;;;;;;23.90;42.20;;;;;;484329;245;810;-68
2021/09/20 09:36:42;;;;;;;;;;;24.10;41.90;;;;;;483716;245;1298;-68
2021/09/20 09:38:43;;;;;;;;;;;23.80;42.90;;;;;;484390;245;1195;-68
2021/09/20 09:40:44;;;;;;;;;;;23.70;43.40;;;;;;484329;245;1565;-69
2021/09/20 09:42:46;;;;;;;;;;;23.30;43.80;;;;;;483729;245;1251;-68
2021/09/20 09:44:47;;;;;;;;;;;24.10;42.40;;;;;;484331;245;794;-68
2021/09/20 09:46:48;;;;;;;;;;;24.40;42.00;;;;;;484386;245;1166;-69
2021/09/20 09:48:50;;;;;;;;;;;24.50;41.70;;;;;;484508;246;701;-69
2021/09/20 09:50:51;;;;;;;;;;;24.00;42.30;;;;;;484532;245;2219;-69
2021/09/20 09:52:52;;;;;;;;;;;23.80;42.60;;;;;;484577;245;984;-69
2021/09/20 09:54:53;;;;;;;;;;;24.10;42.80;;;;;;484272;245;751;-69
2021/09/20 09:56:55;;;;;;;;;;;24.10;42.50;;;;;;484009;245;1091;-69
2021/09/20 09:58:56;;;;;;;;;;;24.00;43.00;;;;;;483877;245;841;-69
2021/09/20 10:00:57;;;;;;;;;;;24.20;42.40;;;;;;484363;245;1470;-69
2021/09/20 10:02:59;;;;;;;;;;;23.80;42.80;;;;;;483992;245;1078;-69
2021/09/20 10:05:00;;;;;;;;;;;24.00;42.30;;;;;;484333;245;871;-69
2021/09/20 10:07:01;;;;;;;;;;;24.20;42.40;;;;;;484325;246;1061;-69
2021/09/20 10:09:03;;;;;;;;;;;24.40;41.70;;;;;;484020;245;807;-69
2021/09/20 10:11:04;;;;;;;;;;;24.30;42.10;;;;;;484092;245;2179;-69
2021/09/20 10:13:08;;;;;;;;;;;24.60;41.70;;;;;;482996;245;775;-69
2021/09/20 10:15:07;;;;;;;;;;;24.00;42.40;;;;;;483586;245;1245;-69
2021/09/20 10:17:11;;;;;;;;;;;23.90;42.70;;;;;;483905;245;1163;-69
2021/09/20 10:19:09;;;;;;;;;;;24.00;42.30;;;;;;484058;245;1265;-69
2021/09/20 10:21:11;;;;;;;;;;;24.10;42.30;;;;;;484181;245;1319;-69
2021/09/20 10:23:12;;;;;;;;;;;24.30;42.10;;;;;;484270;245;762;-69
2021/09/20 10:25:13;;;;;;;;;;;24.00;42.30;;;;;;484228;245;839;-69
2021/09/20 10:27:15;;;;;;;;;;;24.00;42.50;;;;;;483939;245;1329;-69
2021/09/20 10:29:16;;;;;;;;;;;24.30;42.10;;;;;;484365;245;824;-69
2021/09/20 10:31:17;;;;;;;;;;;24.20;42.20;;;;;;484208;245;2183;-69
2021/09/20 10:33:19;;;;;;;;;;;24.30;42.10;;;;;;484016;245;1081;-69
2021/09/20 10:35:20;;;;;;;;;;;23.90;42.50;;;;;;483940;245;744;-69
2021/09/20 10:37:21;;;;;;;;;;;23.80;42.60;;;;;;483999;245;1219;-69
2021/09/20 10:39:23;;;;;;;;;;;24.00;42.40;;;;;;484415;245;760;-69
2021/09/20 10:41:24;;;;;;;;;;;24.40;41.80;;;;;;484466;245;740;-69
2021/09/20 10:43:25;;;;;;;;;;;24.50;41.40;;;;;;483080;245;1146;-69
2021/09/20 10:45:27;;;;;;;;;;;24.30;41.60;;;;;;483912;246;828;-69
2021/09/20 10:47:28;;;;;;;;;;;23.90;42.30;;;;;;484392;245;1593;-69
2021/09/20 10:49:30;;;;;;;;;;;24.00;42.20;;;;;;483949;245;763;-69
2021/09/20 10:51:34;;;;;;;;;;;23.80;42.60;;;;;;483985;245;2168;-69
2021/09/20 10:53:35;;;;;;;;;;;24.00;42.20;;;;;;483903;245;1395;-69
2021/09/20 10:55:36;;;;;;;;;;;23.90;42.70;;;;;;483626;245;1178;-69
2021/09/20 10:57:38;;;;;;;;;;;23.80;42.40;;;;;;483704;245;839;-69
2021/09/20 10:59:39;;;;;;;;;;;23.60;42.70;;;;;;484307;245;737;-69
2021/09/20 11:01:40;;;;;;;;;;;23.70;42.60;;;;;;484216;246;991;-69
2021/09/20 11:03:41;;;;;;;;;;;24.00;42.30;;;;;;483982;245;1268;-69
2021/09/20 11:05:43;;;;;;;;;;;23.90;42.70;;;;;;484393;245;1209;-69
2021/09/20 11:07:44;;;;;;;;;;;23.70;42.90;;;;;;484144;246;878;-69
2021/09/20 11:09:46;;;;;;;;;;;23.80;42.30;;;;;;483938;245;861;-69
2021/09/20 11:11:48;;;;;;;;;;;23.70;42.50;;;;;;484012;245;2187;-69
2021/09/20 11:13:49;;;;;;;;;;;24.00;42.30;;;;;;484550;245;738;-69
2021/09/20 11:15:50;;;;;;;;;;;24.00;42.40;;;;;;484130;245;1291;-69
2021/09/20 11:17:52;;;;;;;;;;;23.70;42.80;;;;;;483863;245;1016;-69
2021/09/20 11:19:53;;;;;;;;;;;23.90;42.30;;;;;;484299;245;802;-69
2021/09/20 11:21:54;;;;;;;;;;;23.40;42.70;;;;;;484121;245;1177;-69
2021/09/20 11:23:56;;;;;;;;;;;24.00;42.30;;;;;;484125;245;821;-69
2021/09/20 11:25:57;;;;;;;;;;;23.80;42.70;;;;;;484288;245;1532;-69
2021/09/20 11:27:58;;;;;;;;;;;23.60;42.90;;;;;;484492;245;987;-69
2021/09/20 11:30:00;;;;;;;;;;;23.60;42.70;;;;;;484468;245;817;-69
2021/09/20 11:32:01;;;;;;;;;;;24.30;41.90;;;;;;484241;246;2188;-69
2021/09/20 11:34:02;;;;;;;;;;;24.20;41.50;;;;;;483996;245;1125;-69
2021/09/20 11:36:03;;;;;;;;;;;24.10;41.90;;;;;;484316;242;1328;-69
2021/09/20 11:38:11;;;;;;;;;;;23.70;42.40;;;;;;484380;246;1061;-69
2021/09/20 11:40:06;;;;;;;;;;;23.60;42.50;;;;;;483995;245;1314;-69
2021/09/20 11:42:07;;;;;;;;;;;23.80;42.30;;;;;;483700;245;1386;-69
2021/09/20 11:44:09;;;;;;;;;;;23.90;42.20;;;;;;483823;245;762;-69
2021/09/20 11:46:10;;;;;;;;;;;24.10;42.00;;;;;;484331;245;1209;-69
2021/09/20 11:48:14;;;;;;;;;;;23.90;42.20;;;;;;484277;245;1260;-69
2021/09/20 11:50:13;;;;;;;;;;;23.80;42.20;;;;;;483882;245;1220;-69
2021/09/20 11:52:14;;;;;;;;;;;23.90;42.20;;;;;;484493;245;2234;-69
2021/09/20 11:54:15;;;;;;;;;;;24.20;41.80;;;;;;484505;245;1008;-69
2021/09/20 11:56:17;;;;;;;;;;;24.30;41.50;;;;;;483725;246;1097;-69
2021/09/20 11:58:18;;;;;;;;;;;23.80;41.90;;;;;;484236;245;773;-69